Time;durP1;ratioP1;P1;durP2;ratioP2;P2;SDS_P1;SDS_P2;PMS_P1;PMS_P2;Temp;Humidity;BMP_temperature;BMP_pressure;BME280_temperature;BME280_humidity;BME280_pressure;Samples;Min_cycle;Max_cycle;Signal;HPM_P1;HPM_P2
2023/10/26 00:00:04;;;;;;;0.75;0.50;;;;;;;8.86;98.96;99195.25;2081795;28;20881;-75
2023/10/26 00:01:16;;;;;;;0.88;0.50;;;;;;;8.86;98.81;99200.63;2084639;28;20847;-74
2023/10/26 00:02:20;;;;;;;0.90;0.40;;;;;;;8.78;99.08;99185.22;2090461;28;20037;-75
2023/10/26 00:03:22;;;;;;;0.82;0.40;;;;;;;8.85;99.22;99192.88;2090572;28;20043;-74
2023/10/26 00:04:24;;;;;;;0.35;0.30;;;;;;;8.85;98.94;99196.34;2098402;28;20871;-74
2023/10/26 00:05:25;;;;;;;0.55;0.38;;;;;;;8.85;99.12;99198.22;2090539;28;20037;-74
2023/10/26 00:06:29;;;;;;;0.30;0.30;;;;;;;8.86;99.25;99205.16;2090062;28;20111;-75
2023/10/26 00:07:33;;;;;;;0.30;0.30;;;;;;;8.86;99.44;99200.63;2082850;28;20116;-75
2023/10/26 00:08:37;;;;;;;1.35;0.50;;;;;;;8.86;98.74;99195.25;2090492;28;20947;-74
2023/10/26 00:09:39;;;;;;;0.80;0.30;;;;;;;8.86;98.90;99189.91;2098572;28;20040;-74
2023/10/26 00:10:46;;;;;;;0.75;0.35;;;;;;;8.87;98.77;99194.16;2090303;28;20029;-74
2023/10/26 00:11:52;;;;;;;1.45;0.20;;;;;;;8.87;98.88;99202.19;2092626;28;20121;-74
2023/10/26 00:12:54;;;;;;;0.75;0.35;;;;;;;8.85;99.16;99193.66;2105983;28;20122;-74
2023/10/26 00:13:56;;;;;;;0.52;0.25;;;;;;;8.87;99.39;99194.16;2097066;28;20041;-74
2023/10/26 00:15:05;;;;;;;0.30;0.20;;;;;;;8.87;98.65;99188.00;2082656;28;21189;-74
2023/10/26 00:16:10;;;;;;;0.65;0.30;;;;;;;8.85;99.61;99190.19;2084287;28;20037;-75
2023/10/26 00:17:12;;;;;;;0.47;0.20;;;;;;;8.86;99.32;99191.75;2082165;28;20052;-73
2023/10/26 00:18:15;;;;;;;0.32;0.25;;;;;;;8.85;98.75;99192.88;2073679;28;20058;-75
2023/10/26 00:19:17;;;;;;;0.50;0.40;;;;;;;8.85;99.21;99193.66;2066629;28;20042;-75
2023/10/26 00:20:19;;;;;;;0.30;0.30;;;;;;;8.85;98.89;99193.66;2090341;28;20900;-74
2023/10/26 00:21:21;;;;;;;0.40;0.30;;;;;;;8.86;98.84;99194.44;2098496;28;20033;-74
2023/10/26 00:22:32;;;;;;;0.68;0.22;;;;;;;8.86;99.18;99192.59;2098262;28;20838;-75
2023/10/26 00:23:36;;;;;;;0.35;0.20;;;;;;;8.84;99.82;99184.03;2090051;28;20049;-74
2023/10/26 00:24:38;;;;;;;0.40;0.30;;;;;;;8.82;98.97;99187.00;2106603;28;20036;-75
2023/10/26 00:25:40;;;;;;;0.20;0.20;;;;;;;8.86;99.25;99184.53;2101507;28;20118;-75
2023/10/26 00:26:41;;;;;;;0.20;0.20;;;;;;;8.85;99.29;99177.56;2098578;28;20025;-75
2023/10/26 00:27:44;;;;;;;1.33;0.60;;;;;;;8.87;99.39;99180.75;2106999;28;20036;-75
2023/10/26 00:28:46;;;;;;;0.82;0.65;;;;;;;8.86;99.17;99183.72;2097914;28;20136;-75
2023/10/26 00:29:48;;;;;;;0.20;0.20;;;;;;;8.87;98.89;99179.97;2081826;28;20044;-75
2023/10/26 00:30:51;;;;;;;0.32;0.20;;;;;;;8.85;99.58;99180.25;2090251;28;20030;-75
2023/10/26 00:31:53;;;;;;;0.80;0.47;;;;;;;8.88;99.29;99182.34;2107072;28;20857;-76
2023/10/26 00:32:54;;;;;;;0.60;0.40;;;;;;;8.85;99.39;99172.22;2106678;28;20876;-75
2023/10/26 00:33:57;;;;;;;0.88;0.20;;;;;;;8.82;99.36;99167.44;2098514;28;20072;-75
2023/10/26 00:34:58;;;;;;;0.20;0.17;;;;;;;8.85;99.50;99177.56;2106943;28;20773;-75
2023/10/26 00:36:01;;;;;;;1.50;0.40;;;;;;;8.86;99.54;99179.19;2098078;28;20041;-75
2023/10/26 00:37:03;;;;;;;0.60;0.20;;;;;;;8.88;98.72;99171.63;2098330;28;20863;-75
2023/10/26 00:38:06;;;;;;;0.30;0.10;;;;;;;8.89;99.24;99180.44;2098306;28;20033;-75
2023/10/26 00:39:08;;;;;;;1.58;0.40;;;;;;;8.86;99.10;99173.81;2082216;28;20026;-75
2023/10/26 00:40:17;;;;;;;0.65;0.20;;;;;;;8.87;99.32;99170.03;2083288;28;20030;-75
2023/10/26 00:41:23;;;;;;;0.55;0.22;;;;;;;8.89;99.00;99178.56;2092867;28;20120;-76
2023/10/26 00:42:27;;;;;;;0.32;0.20;;;;;;;8.90;98.90;99188.19;2106230;28;20075;-76
2023/10/26 00:43:28;;;;;;;0.50;0.32;;;;;;;8.89;99.11;99175.91;2098231;28;20025;-76
2023/10/26 00:44:30;;;;;;;0.30;0.30;;;;;;;8.85;99.40;99166.84;2088967;28;20159;-75
2023/10/26 00:45:38;;;;;;;0.70;0.40;;;;;;;8.90;99.36;99177.47;2073285;28;20061;-75
2023/10/26 00:46:39;;;;;;;0.20;0.20;;;;;;;8.90;99.07;99174.00;2091890;28;20760;-75
2023/10/26 00:47:41;;;;;;;0.38;0.35;;;;;;;8.87;99.27;99167.34;2089876;28;20030;-75
2023/10/26 00:48:46;;;;;;;0.75;0.20;;;;;;;8.88;99.29;99171.63;2090677;28;20092;-74
2023/10/26 00:49:51;;;;;;;0.70;0.30;;;;;;;8.82;99.26;99162.88;2098718;28;20029;-75
2023/10/26 00:50:56;;;;;;;0.30;0.20;;;;;;;8.90;99.25;99169.44;2106815;28;20151;-75
2023/10/26 00:52:02;;;;;;;0.47;0.30;;;;;;;8.89;99.29;99165.19;2090437;28;20029;-75
2023/10/26 00:53:04;;;;;;;0.25;0.20;;;;;;;8.88;99.16;99176.97;2099729;28;20751;-75
2023/10/26 00:54:09;;;;;;;0.47;0.30;;;;;;;8.92;99.16;99167.25;2106295;28;20161;-75
2023/10/26 00:55:14;;;;;;;0.32;0.20;;;;;;;8.92;99.24;99174.47;2089920;28;20040;-75
2023/10/26 00:56:20;;;;;;;1.48;0.40;;;;;;;8.89;99.14;99162.50;2096776;28;20036;-75
2023/10/26 00:57:23;;;;;;;0.55;0.30;;;;;;;8.89;98.99;99165.19;2090829;28;20025;-75
2023/10/26 00:58:27;;;;;;;0.17;0.17;;;;;;;8.91;98.94;99165.66;2090025;28;20033;-75
2023/10/26 00:59:32;;;;;;;0.55;0.25;;;;;;;8.91;98.97;99164.88;2093803;28;20961;-75
2023/10/26 01:00:36;;;;;;;0.30;0.22;;;;;;;8.92;98.97;99169.94;2090543;28;20858;-75
2023/10/26 01:01:40;;;;;;;0.20;0.20;;;;;;;8.93;99.43;99174.19;2090348;28;20044;-75
2023/10/26 01:02:46;;;;;;;0.35;0.28;;;;;;;8.86;99.54;99156.91;2090509;28;20046;-75
2023/10/26 01:03:49;;;;;;;0.20;0.20;;;;;;;8.91;99.61;99164.88;2098606;28;20033;-75
2023/10/26 01:04:51;;;;;;;0.50;0.40;;;;;;;8.91;98.89;99162.97;2106290;28;20052;-75
2023/10/26 01:05:54;;;;;;;0.40;0.20;;;;;;;8.90;99.11;99157.94;2089760;28;20156;-75
2023/10/26 01:06:56;;;;;;;0.73;0.22;;;;;;;8.93;99.01;99171.50;2073799;28;20759;-75
2023/10/26 01:07:57;;;;;;;0.20;0.20;;;;;;;8.91;98.96;99154.94;2081882;28;20048;-75
2023/10/26 01:09:01;;;;;;;0.32;0.22;;;;;;;8.88;99.05;99150.16;2089973;28;20033;-74
2023/10/26 01:10:07;;;;;;;0.57;0.30;;;;;;;8.93;98.93;99163.47;2090631;28;20799;-75
2023/10/26 01:11:10;;;;;;;0.73;0.30;;;;;;;8.93;99.15;99160.78;2098403;28;20041;-75
2023/10/26 01:12:15;;;;;;;0.20;0.20;;;;;;;8.93;98.68;99158.13;2098271;28;20838;-74
2023/10/26 01:13:17;;;;;;;0.30;0.30;;;;;;;8.91;99.07;99154.94;2089942;28;20048;-74
2023/10/26 01:14:20;;;;;;;0.93;0.35;;;;;;;8.92;98.36;99155.72;2097408;28;20037;-75
2023/10/26 01:15:26;;;;;;;0.45;0.30;;;;;;;8.92;98.55;99148.50;2097990;28;20047;-75
2023/10/26 01:16:28;;;;;;;0.77;0.50;;;;;;;8.91;98.93;99152.25;2090719;28;20118;-75
2023/10/26 01:17:35;;;;;;;0.73;0.30;;;;;;;8.89;99.05;99141.06;2090182;28;20120;-75
2023/10/26 01:18:37;;;;;;;0.50;0.20;;;;;;;8.92;98.63;99145.00;2090726;28;20105;-75
2023/10/26 01:19:42;;;;;;;0.28;0.28;;;;;;;8.90;98.88;99148.00;2106910;28;20081;-75
2023/10/26 01:20:43;;;;;;;0.20;0.20;;;;;;;8.90;98.68;99137.28;2105861;28;20071;-75
2023/10/26 01:21:53;;;;;;;0.25;0.25;;;;;;;8.86;98.77;99138.16;2097817;28;20041;-75
2023/10/26 01:22:54;;;;;;;0.28;0.20;;;;;;;8.90;98.76;99142.63;2096824;28;20029;-75
2023/10/26 01:23:56;;;;;;;1.70;0.30;;;;;;;8.86;98.77;99136.28;2073537;28;20133;-75
2023/10/26 01:25:01;;;;;;;1.17;0.40;;;;;;;8.90;99.04;99141.84;2074346;28;20042;-75
2023/10/26 01:26:02;;;;;;;0.40;0.30;;;;;;;8.91;98.68;99138.06;2089850;28;20998;-75
2023/10/26 01:27:08;;;;;;;0.20;0.20;;;;;;;8.90;98.98;99139.94;2097878;28;20126;-75
2023/10/26 01:28:10;;;;;;;1.80;0.30;;;;;;;8.87;99.41;99127.16;2090308;28;20724;-75
2023/10/26 01:29:11;;;;;;;0.50;0.40;;;;;;;8.91;99.00;99127.34;2098177;28;20094;-74
2023/10/26 01:30:16;;;;;;;0.73;0.20;;;;;;;8.92;99.19;99134.28;2081256;28;20032;-75
2023/10/26 01:31:19;;;;;;;1.13;0.40;;;;;;;8.90;99.12;99126.53;2090085;28;20053;-75
2023/10/26 01:32:20;;;;;;;0.40;0.30;;;;;;;8.92;98.79;99129.72;2089814;28;20859;-75
2023/10/26 01:33:24;;;;;;;0.50;0.30;;;;;;;8.92;99.17;99129.72;2098283;28;20041;-75
2023/10/26 01:34:26;;;;;;;0.60;0.20;;;;;;;8.92;98.78;99124.38;2097975;28;20037;-75
2023/10/26 01:35:27;;;;;;;0.30;0.30;;;;;;;8.92;99.33;99124.38;2089782;28;21134;-75
2023/10/26 01:36:32;;;;;;;0.73;0.30;;;;;;;8.89;99.25;99114.25;2090214;28;21045;-75
2023/10/26 01:37:39;;;;;;;0.20;0.20;;;;;;;8.92;98.88;99127.06;2097956;28;20879;-75
2023/10/26 01:38:41;;;;;;;0.20;0.20;;;;;;;8.92;98.73;99119.00;2089882;28;20045;-75
2023/10/26 01:39:43;;;;;;;0.30;0.30;;;;;;;8.92;98.93;99115.50;2089986;28;20041;-75
2023/10/26 01:40:49;;;;;;;1.05;0.20;;;;;;;8.89;98.91;99111.56;2089678;28;20766;-75
2023/10/26 01:41:54;;;;;;;0.38;0.10;;;;;;;8.93;99.09;99109.88;2090667;28;20038;-75
2023/10/26 01:43:00;;;;;;;0.20;0.20;;;;;;;8.95;98.75;99115.72;2107560;28;20032;-75
2023/10/26 01:44:03;;;;;;;0.32;0.10;;;;;;;8.95;98.62;99107.69;2096944;28;20033;-75
2023/10/26 01:45:06;;;;;;;0.22;0.20;;;;;;;8.93;98.83;99104.50;2102724;28;20032;-75
2023/10/26 01:46:08;;;;;;;0.40;0.20;;;;;;;8.94;99.08;99103.41;2097337;28;20063;-75
2023/10/26 01:47:12;;;;;;;1.05;0.22;;;;;;;8.95;98.97;99109.53;2097352;28;20123;-75
2023/10/26 01:48:13;;;;;;;0.57;0.20;;;;;;;8.91;98.59;99106.69;2090120;28;20041;-75
2023/10/26 01:49:18;;;;;;;0.20;0.20;;;;;;;8.92;98.96;99116.31;2089469;28;20029;-75
2023/10/26 01:50:22;;;;;;;0.50;0.20;;;;;;;8.95;98.86;99107.69;2090017;28;20037;-74
2023/10/26 01:51:26;;;;;;;0.22;0.20;;;;;;;8.94;98.59;99121.38;2081356;28;20068;-74
2023/10/26 01:52:28;;;;;;;0.52;0.10;;;;;;;8.95;98.74;99107.69;2081563;28;20049;-75
2023/10/26 01:53:32;;;;;;;0.10;0.10;;;;;;;8.95;99.18;99118.41;2106629;28;20102;-75
2023/10/26 01:54:35;;;;;;;0.20;0.10;;;;;;;8.92;98.82;99110.97;2105405;28;21057;-74
2023/10/26 01:55:39;;;;;;;0.10;0.10;;;;;;;8.95;98.63;99112.22;2089796;28;20151;-75
2023/10/26 01:56:43;;;;;;;1.55;0.10;;;;;;;8.95;98.95;99107.69;2098351;28;20071;-75
2023/10/26 01:57:48;;;;;;;1.10;0.20;;;;;;;8.92;99.30;99102.09;2106511;28;20032;-74
2023/10/26 01:58:50;;;;;;;0.15;0.10;;;;;;;8.91;98.65;99101.31;2097962;28;20029;-75
2023/10/26 01:59:55;;;;;;;0.13;0.05;;;;;;;8.94;99.03;99106.06;2082471;28;20726;-75
2023/10/26 02:00:57;;;;;;;0.20;0.20;;;;;;;8.94;98.87;99099.94;2082285;28;20041;-75
2023/10/26 02:01:59;;;;;;;0.30;0.20;;;;;;;8.96;98.65;99103.09;2089742;28;20052;-75
2023/10/26 02:03:00;;;;;;;0.17;0.17;;;;;;;8.95;99.05;99096.97;2081493;28;21012;-75
2023/10/26 02:04:07;;;;;;;0.30;0.20;;;;;;;8.97;98.96;99099.31;2098782;28;20029;-75
2023/10/26 02:05:12;;;;;;;0.10;0.10;;;;;;;8.92;98.67;99097.56;2105037;28;20044;-74
2023/10/26 02:06:15;;;;;;;0.20;0.15;;;;;;;8.97;99.16;99102.78;2081706;28;20046;-74
2023/10/26 02:07:20;;;;;;;0.63;0.20;;;;;;;8.92;98.41;99100.25;2091142;28;20228;-74
2023/10/26 02:08:21;;;;;;;0.10;0.10;;;;;;;8.97;98.94;99099.31;2099377;28;20747;-74
2023/10/26 02:09:23;;;;;;;0.20;0.10;;;;;;;8.95;99.24;99101.50;2107579;28;20043;-74
2023/10/26 02:10:29;;;;;;;0.10;0.10;;;;;;;8.95;99.05;99099.63;2107674;28;20040;-74
2023/10/26 02:11:30;;;;;;;0.17;0.10;;;;;;;8.95;98.74;99096.97;2099514;28;20071;-74
2023/10/26 02:12:34;;;;;;;0.73;0.20;;;;;;;8.94;99.25;99098.03;2099516;28;20021;-75
2023/10/26 02:13:38;;;;;;;0.13;0.13;;;;;;;8.98;98.57;99096.31;2099593;28;20755;-75
2023/10/26 02:14:41;;;;;;;0.20;0.20;;;;;;;8.96;99.11;99095.06;2082627;28;20927;-74
2023/10/26 02:15:43;;;;;;;0.10;0.10;;;;;;;8.95;98.47;99091.59;2090910;28;20123;-74
2023/10/26 02:16:45;;;;;;;0.85;0.20;;;;;;;8.96;98.73;99087.03;2102748;28;20037;-75
2023/10/26 02:17:47;;;;;;;0.20;0.20;;;;;;;8.99;98.75;99091.78;2091165;28;20157;-75
2023/10/26 02:18:51;;;;;;;0.85;0.20;;;;;;;8.99;99.11;99092.56;2090982;28;20037;-75
2023/10/26 02:19:55;;;;;;;0.20;0.20;;;;;;;8.98;98.81;99096.31;2083395;28;20253;-75
2023/10/26 02:20:59;;;;;;;0.20;0.20;;;;;;;8.99;99.10;99092.56;2092368;28;21254;-75
2023/10/26 02:22:03;;;;;;;0.47;0.10;;;;;;;8.96;98.91;99090.50;2107323;28;20104;-75
2023/10/26 02:23:07;;;;;;;0.10;0.10;;;;;;;8.99;98.45;99089.88;2090900;28;20033;-75
2023/10/26 02:24:11;;;;;;;0.10;0.10;;;;;;;8.97;98.42;99086.72;2076109;28;20034;-75
2023/10/26 02:25:20;;;;;;;0.45;0.20;;;;;;;8.99;98.57;99091.78;2096051;28;20036;-75
2023/10/26 02:26:23;;;;;;;0.20;0.20;;;;;;;9.01;98.72;99094.94;2100382;28;20045;-75
2023/10/26 02:27:24;;;;;;;0.35;0.15;;;;;;;8.98;98.64;99096.31;2098664;28;20029;-75
2023/10/26 02:28:25;;;;;;;0.55;0.20;;;;;;;8.97;98.40;99081.34;2099192;28;20043;-75
2023/10/26 02:29:29;;;;;;;1.80;0.17;;;;;;;9.00;99.06;99099.50;2107004;28;20106;-75
2023/10/26 02:30:33;;;;;;;1.23;0.20;;;;;;;8.97;99.05;99088.59;2100981;28;20040;-75
2023/10/26 02:31:35;;;;;;;1.27;0.10;;;;;;;8.99;98.27;99084.53;2099136;28;20148;-75
2023/10/26 02:32:37;;;;;;;0.40;0.20;;;;;;;8.97;98.66;99086.72;2107345;28;20910;-75
2023/10/26 02:33:40;;;;;;;0.30;0.20;;;;;;;9.00;98.80;99096.81;2107373;28;20163;-75
2023/10/26 02:34:42;;;;;;;0.20;0.20;;;;;;;8.99;99.00;99089.88;2107588;28;20088;-75
2023/10/26 02:35:43;;;;;;;0.40;0.10;;;;;;;8.98;98.94;99096.31;2090361;28;20154;-75
2023/10/26 02:36:45;;;;;;;0.10;0.10;;;;;;;9.00;98.72;99094.16;2082811;28;20034;-75
2023/10/26 02:37:47;;;;;;;0.25;0.20;;;;;;;8.97;98.47;99093.97;2098558;28;20032;-75
2023/10/26 02:38:55;;;;;;;0.20;0.20;;;;;;;8.97;98.44;99084.03;2091268;28;20095;-75
2023/10/26 02:39:59;;;;;;;0.30;0.20;;;;;;;8.97;98.44;99086.72;2098945;28;20789;-75
2023/10/26 02:41:05;;;;;;;0.10;0.10;;;;;;;8.94;98.69;99079.28;2091221;28;20033;-75
2023/10/26 02:42:06;;;;;;;0.20;0.20;;;;;;;8.98;98.28;99084.81;2082367;28;20050;-75
2023/10/26 02:43:11;;;;;;;0.20;0.10;;;;;;;8.98;98.24;99084.81;2082396;28;20160;-75
2023/10/26 02:44:12;;;;;;;0.30;0.20;;;;;;;8.97;98.33;99077.88;2082711;28;20077;-75
2023/10/26 02:45:15;;;;;;;0.10;0.10;;;;;;;8.97;98.65;99077.88;2091924;28;20033;-75
2023/10/26 02:46:16;;;;;;;0.25;0.20;;;;;;;8.97;98.44;99080.56;2090731;28;20037;-75
2023/10/26 02:47:20;;;;;;;2.83;0.20;;;;;;;8.96;98.32;99079.78;2075426;28;20901;-75
2023/10/26 02:48:23;;;;;;;0.20;0.10;;;;;;;8.96;98.10;99073.63;2098472;28;20918;-75
2023/10/26 02:49:30;;;;;;;0.17;0.10;;;;;;;8.96;98.48;99079.78;2090406;28;20072;-75
2023/10/26 02:50:33;;;;;;;0.63;0.30;;;;;;;8.96;98.21;99076.31;2083196;28;20849;-75
2023/10/26 02:51:38;;;;;;;0.47;0.30;;;;;;;8.95;98.79;99075.50;2092171;28;20045;-75
2023/10/26 02:52:40;;;;;;;0.50;0.20;;;;;;;8.95;98.34;99075.50;2090051;28;20073;-75
2023/10/26 02:53:42;;;;;;;0.95;0.30;;;;;;;8.94;98.86;99071.22;2090774;28;20117;-75
2023/10/26 02:54:47;;;;;;;0.52;0.20;;;;;;;8.96;98.43;99081.66;2106948;28;20033;-76
2023/10/26 02:55:52;;;;;;;0.57;0.10;;;;;;;8.93;98.08;99072.34;2115700;28;20044;-76
2023/10/26 02:56:57;;;;;;;0.22;0.20;;;;;;;8.94;98.41;99076.59;2097386;28;20045;-76
2023/10/26 02:57:59;;;;;;;0.85;0.22;;;;;;;8.95;98.00;99074.69;2075507;28;20178;-75
2023/10/26 02:59:03;;;;;;;0.22;0.20;;;;;;;8.93;98.68;99068.88;2090790;28;20915;-76
2023/10/26 03:00:08;;;;;;;0.20;0.13;;;;;;;8.89;98.01;99068.69;2099299;28;20970;-76
2023/10/26 03:01:10;;;;;;;0.20;0.20;;;;;;;8.93;98.22;99066.97;2098417;28;20060;-76
2023/10/26 03:02:12;;;;;;;0.82;0.15;;;;;;;8.88;98.47;99074.34;2082421;28;20123;-76
2023/10/26 03:03:13;;;;;;;0.75;0.17;;;;;;;8.92;98.68;99076.13;2082700;28;20045;-75
2023/10/26 03:04:13;;;;;;;0.88;0.20;;;;;;;8.95;98.41;99086.25;2090509;28;20041;-75
2023/10/26 03:05:15;;;;;;;0.65;0.38;;;;;;;8.94;98.60;99073.91;2082512;28;20042;-76
2023/10/26 03:06:23;;;;;;;1.30;0.30;;;;;;;8.96;97.99;99078.97;2082957;28;20927;-75
2023/10/26 03:07:27;;;;;;;0.98;0.20;;;;;;;8.95;97.83;99075.50;2083585;28;20077;-75
2023/10/26 03:08:32;;;;;;;1.08;0.28;;;;;;;8.93;98.10;99074.22;2091643;28;20033;-75
2023/10/26 03:09:34;;;;;;;0.77;0.20;;;;;;;8.92;98.22;99070.75;2107182;28;20159;-75
2023/10/26 03:10:36;;;;;;;0.22;0.20;;;;;;;8.94;98.29;99068.56;2082440;28;20041;-75
2023/10/26 03:11:37;;;;;;;0.13;0.13;;;;;;;8.92;98.20;99059.22;2073760;28;20043;-75
2023/10/26 03:12:39;;;;;;;0.35;0.28;;;;;;;8.95;98.05;99070.16;2091160;28;20033;-75
2023/10/26 03:13:41;;;;;;;0.10;0.10;;;;;;;8.96;98.30;99068.25;2098931;28;21268;-75
2023/10/26 03:14:44;;;;;;;0.20;0.15;;;;;;;8.94;97.96;99070.44;2090482;28;20139;-76
2023/10/26 03:15:46;;;;;;;1.20;0.38;;;;;;;8.95;98.53;99070.16;2089733;28;20033;-75
2023/10/26 03:16:48;;;;;;;0.57;0.10;;;;;;;8.97;98.28;99067.16;2098796;28;20091;-75
2023/10/26 03:17:51;;;;;;;0.20;0.20;;;;;;;8.96;98.29;99066.38;2090867;28;20095;-75
2023/10/26 03:18:56;;;;;;;1.13;0.30;;;;;;;8.96;98.46;99063.69;2098443;28;20156;-75
2023/10/26 03:20:08;;;;;;;0.60;0.30;;;;;;;8.97;97.82;99067.94;2098977;28;20947;-75
2023/10/26 03:21:10;;;;;;;1.02;0.30;;;;;;;8.97;97.78;99059.91;2092115;28;20037;-76
2023/10/26 03:22:14;;;;;;;1.08;0.30;;;;;;;8.97;98.54;99065.25;2082245;28;20049;-75
2023/10/26 03:23:21;;;;;;;1.08;0.20;;;;;;;8.98;97.91;99066.84;2091921;28;20036;-75
2023/10/26 03:24:25;;;;;;;0.20;0.20;;;;;;;8.91;98.03;99053.06;2099358;28;20859;-75
2023/10/26 03:25:27;;;;;;;0.20;0.20;;;;;;;8.98;97.93;99060.69;2098729;28;20752;-75
2023/10/26 03:26:28;;;;;;;0.80;0.30;;;;;;;8.99;98.53;99060.41;2090483;28;21004;-76
2023/10/26 03:27:32;;;;;;;0.65;0.30;;;;;;;8.96;98.25;99050.28;2090570;28;20036;-76
2023/10/26 03:28:33;;;;;;;0.20;0.20;;;;;;;8.99;98.22;99055.03;2099137;28;20037;-77
2023/10/26 03:29:37;;;;;;;0.20;0.20;;;;;;;8.99;98.25;99062.28;2105982;28;21161;-76
2023/10/26 03:30:38;;;;;;;0.30;0.30;;;;;;;8.99;98.31;99060.41;2087055;28;21339;-76
2023/10/26 03:31:41;;;;;;;0.50;0.30;;;;;;;8.96;98.50;99047.59;2074424;28;20067;-76
2023/10/26 03:32:44;;;;;;;0.38;0.30;;;;;;;8.98;97.83;99045.41;2082424;28;20042;-77
2023/10/26 03:33:45;;;;;;;0.22;0.22;;;;;;;8.99;98.37;99052.34;2090664;28;20044;-76
2023/10/26 03:34:48;;;;;;;0.50;0.40;;;;;;;9.01;98.44;99054.72;2106810;28;20044;-76
2023/10/26 03:35:55;;;;;;;0.90;0.30;;;;;;;9.01;98.09;99046.69;2098991;28;20036;-76
2023/10/26 03:36:59;;;;;;;0.20;0.10;;;;;;;8.98;97.89;99036.56;2099098;28;20079;-76
2023/10/26 03:38:02;;;;;;;0.20;0.10;;;;;;;9.02;98.47;99046.38;2103117;28;20051;-76
2023/10/26 03:39:10;;;;;;;0.32;0.20;;;;;;;9.01;97.89;99047.47;2091158;28;20045;-76
2023/10/26 03:40:14;;;;;;;0.32;0.25;;;;;;;9.01;98.20;99044.00;2082825;28;20152;-76
2023/10/26 03:41:19;;;;;;;0.32;0.30;;;;;;;9.02;98.64;99041.03;2091550;28;20033;-76
2023/10/26 03:42:20;;;;;;;0.47;0.30;;;;;;;9.00;98.15;99034.38;2098691;28;20045;-76
2023/10/26 03:43:22;;;;;;;0.60;0.22;;;;;;;8.99;98.06;99033.59;2089844;28;20397;-76
2023/10/26 03:44:24;;;;;;;0.30;0.30;;;;;;;8.99;98.34;99038.94;2090832;28;20045;-76
2023/10/26 03:45:28;;;;;;;1.05;0.40;;;;;;;9.03;98.19;99037.25;2090304;28;20038;-76
2023/10/26 03:46:30;;;;;;;1.65;0.30;;;;;;;9.03;98.45;99039.91;2090967;28;20857;-76
2023/10/26 03:47:32;;;;;;;0.70;0.50;;;;;;;9.03;98.61;99039.91;2098843;28;20079;-76
2023/10/26 03:48:34;;;;;;;0.30;0.30;;;;;;;9.05;98.29;99036.94;2098792;28;20037;-76
2023/10/26 03:49:35;;;;;;;0.73;0.40;;;;;;;9.03;98.24;99029.19;2098724;28;20069;-76
2023/10/26 03:50:37;;;;;;;0.95;0.43;;;;;;;9.03;98.35;99033.78;2090577;28;20797;-75
2023/10/26 03:51:39;;;;;;;0.50;0.35;;;;;;;9.03;97.96;99029.19;2115591;27;20036;-75
2023/10/26 03:52:42;;;;;;;0.52;0.40;;;;;;;9.04;98.60;99030.78;2106784;28;20039;-75
2023/10/26 03:53:45;;;;;;;0.47;0.38;;;;;;;9.07;97.89;99039.31;2091177;28;20037;-75
2023/10/26 03:54:47;;;;;;;0.40;0.40;;;;;;;9.02;98.11;99024.94;2106965;28;20032;-75
2023/10/26 03:55:49;;;;;;;0.40;0.30;;;;;;;9.08;97.89;99032.84;2098433;28;20052;-75
2023/10/26 03:56:51;;;;;;;0.73;0.35;;;;;;;9.03;98.03;99017.69;2074072;28;20034;-75
2023/10/26 03:57:52;;;;;;;0.50;0.50;;;;;;;9.07;97.87;99032.06;2074225;28;20858;-75
2023/10/26 03:58:54;;;;;;;0.43;0.40;;;;;;;9.05;97.87;99032.38;2082433;28;20029;-75
2023/10/26 04:00:03;;;;;;;1.08;0.60;;;;;;;9.08;98.43;99024.81;2090618;28;20146;-75
2023/10/26 04:01:15;;;;;;;0.50;0.50;;;;;;;9.04;98.55;99025.41;2099656;28;21058;-75
2023/10/26 04:02:19;;;;;;;0.80;0.50;;;;;;;9.05;98.03;99027.00;2106999;28;20902;-75
2023/10/26 04:03:26;;;;;;;0.40;0.40;;;;;;;9.03;98.28;99023.84;2107274;28;20033;-75
2023/10/26 04:04:30;;;;;;;0.55;0.40;;;;;;;9.08;97.70;99027.47;2098778;28;20891;-75
2023/10/26 04:05:34;;;;;;;0.50;0.50;;;;;;;9.04;98.60;99030.78;2098958;28;20071;-75
2023/10/26 04:06:37;;;;;;;0.55;0.40;;;;;;;9.03;97.77;99018.47;2107185;28;20043;-74
2023/10/26 04:07:39;;;;;;;0.50;0.40;;;;;;;9.07;98.60;99024.00;2105231;28;20036;-74
2023/10/26 04:08:41;;;;;;;0.50;0.50;;;;;;;9.07;98.33;99020.53;2086535;28;20045;-74
2023/10/26 04:09:43;;;;;;;0.40;0.38;;;;;;;9.05;98.46;99010.13;2098953;28;20946;-75
2023/10/26 04:10:46;;;;;;;0.77;0.55;;;;;;;9.04;98.64;99013.91;2098428;28;20041;-75
2023/10/26 04:11:48;;;;;;;0.52;0.43;;;;;;;9.07;98.05;99018.66;2090936;28;20056;-76
2023/10/26 04:12:50;;;;;;;0.70;0.70;;;;;;;9.04;98.41;99012.00;2098217;28;20768;-74
2023/10/26 04:13:53;;;;;;;1.58;0.75;;;;;;;9.08;98.11;99019.44;2106859;28;20806;-75
2023/10/26 04:14:57;;;;;;;0.93;0.50;;;;;;;9.08;98.68;99016.75;2097837;28;20941;-75
2023/10/26 04:16:02;;;;;;;0.55;0.45;;;;;;;9.08;98.33;99014.06;2095005;28;20041;-75
2023/10/26 04:17:07;;;;;;;0.50;0.50;;;;;;;9.09;98.66;99013.00;2098694;28;20036;-75
2023/10/26 04:18:12;;;;;;;0.68;0.60;;;;;;;9.03;98.50;99001.59;2090165;28;20033;-75
2023/10/26 04:19:13;;;;;;;1.23;0.60;;;;;;;9.09;97.92;99004.94;2107570;27;20037;-74
2023/10/26 04:20:15;;;;;;;1.05;0.63;;;;;;;9.10;97.90;99006.53;2106547;28;20036;-75
2023/10/26 04:21:16;;;;;;;0.38;0.32;;;;;;;9.04;98.05;98998.59;2090328;28;20045;-76
2023/10/26 04:22:20;;;;;;;0.40;0.40;;;;;;;9.10;98.02;99009.22;2090157;28;20045;-75
2023/10/26 04:23:23;;;;;;;0.38;0.30;;;;;;;9.03;98.04;98997.03;2090774;28;20163;-75
2023/10/26 04:24:24;;;;;;;0.65;0.30;;;;;;;9.08;98.11;99008.72;2098532;28;20040;-75
2023/10/26 04:25:28;;;;;;;0.95;0.30;;;;;;;9.05;97.77;99000.19;2089949;28;20796;-75
2023/10/26 04:26:30;;;;;;;0.80;0.30;;;;;;;9.10;98.43;99003.84;2098801;28;20820;-75
2023/10/26 04:27:35;;;;;;;0.95;0.32;;;;;;;9.11;98.21;99005.41;2106621;28;20131;-75
2023/10/26 04:28:40;;;;;;;0.88;0.40;;;;;;;9.10;97.94;99006.53;2107085;28;20844;-75
2023/10/26 04:29:45;;;;;;;0.60;0.30;;;;;;;9.10;98.12;99001.16;2123509;27;20154;-75
2023/10/26 04:30:48;;;;;;;0.30;0.30;;;;;;;9.12;97.76;99004.34;2122403;27;20031;-75
2023/10/26 04:31:50;;;;;;;0.38;0.30;;;;;;;9.11;98.40;98998.19;2097521;28;20032;-75
2023/10/26 04:32:52;;;;;;;0.30;0.22;;;;;;;9.09;97.69;99000.38;2098563;28;20045;-75
2023/10/26 04:33:58;;;;;;;0.43;0.30;;;;;;;9.11;97.74;99002.75;2106062;28;20066;-75
2023/10/26 04:34:59;;;;;;;0.50;0.28;;;;;;;8.88;98.04;98962.56;2089424;28;20845;-75
2023/10/26 04:36:02;;;;;;;0.40;0.20;;;;;;;9.10;98.04;99001.94;2081122;28;20042;-74
2023/10/26 04:37:09;;;;;;;0.43;0.32;;;;;;;9.11;98.38;98995.50;2082145;28;20037;-75
2023/10/26 04:38:13;;;;;;;0.28;0.28;;;;;;;9.10;98.16;98993.13;2096499;28;20064;-76
2023/10/26 04:39:15;;;;;;;0.43;0.22;;;;;;;9.12;98.10;98996.31;2106318;28;20057;-74
2023/10/26 04:40:17;;;;;;;0.30;0.30;;;;;;;9.12;98.06;98996.31;2106876;28;20079;-74
2023/10/26 04:41:20;;;;;;;0.20;0.20;;;;;;;9.09;98.50;98999.59;2107593;28;20141;-74
2023/10/26 04:42:23;;;;;;;0.65;0.22;;;;;;;9.11;98.36;99000.06;2106170;28;20048;-75
2023/10/26 04:43:24;;;;;;;0.47;0.20;;;;;;;9.12;98.06;98998.97;2098648;28;20772;-75
2023/10/26 04:44:28;;;;;;;0.45;0.22;;;;;;;9.12;98.09;98998.97;2089469;28;21039;-74
2023/10/26 04:45:30;;;;;;;0.20;0.20;;;;;;;9.13;98.41;99003.22;2074108;28;20034;-75
2023/10/26 04:46:32;;;;;;;1.45;0.20;;;;;;;9.11;97.74;98995.50;2080451;28;20041;-74
2023/10/26 04:47:34;;;;;;;0.60;0.30;;;;;;;9.12;98.08;98999.75;2097913;28;20866;-75
2023/10/26 04:48:35;;;;;;;0.40;0.30;;;;;;;9.12;98.31;98998.97;2098323;28;20036;-75
2023/10/26 04:49:40;;;;;;;0.65;0.20;;;;;;;9.11;98.01;98998.19;2089028;28;20029;-75
2023/10/26 04:50:43;;;;;;;0.50;0.25;;;;;;;9.10;98.14;98993.13;2088029;28;20032;-74
2023/10/26 04:51:45;;;;;;;0.35;0.20;;;;;;;9.12;98.22;98999.75;2100654;28;20131;-73
2023/10/26 04:52:48;;;;;;;0.63;0.30;;;;;;;9.08;97.59;98987.25;2086623;28;20119;-74
2023/10/26 04:53:49;;;;;;;1.05;0.20;;;;;;;9.11;97.74;98992.00;2085774;28;20102;-75
2023/10/26 04:54:51;;;;;;;0.47;0.30;;;;;;;9.12;97.89;98993.63;2080106;28;20115;-76
2023/10/26 04:55:54;;;;;;;0.47;0.30;;;;;;;9.12;98.44;98988.25;2102316;28;20037;-76
2023/10/26 04:56:58;;;;;;;0.22;0.20;;;;;;;9.08;97.93;98987.25;2105064;28;20111;-74
2023/10/26 04:58:03;;;;;;;1.23;0.38;;;;;;;9.12;97.81;98985.56;2111543;28;20043;-74
2023/10/26 04:59:06;;;;;;;0.60;0.30;;;;;;;9.10;98.10;98982.41;2104390;28;20146;-76
2023/10/26 05:00:09;;;;;;;0.20;0.20;;;;;;;9.13;98.28;98989.81;2097076;28;20043;-75
2023/10/26 05:01:13;;;;;;;0.95;0.30;;;;;;;9.11;98.24;98987.47;2096806;28;20075;-75